メインページ
METAR-TAF:

METAR-TAF

空港 :

ジュノー, アラスカ州, アメリカ合衆国

ジュノー国際空港

緯度: 58-21-17N, 経度: 134-34-34W, 海抜: 6m

現時点の気象観測

当レポートは41分前の15:53(UTC)に作成
無風
気温 -7°C
湿度 93%
気圧 999 hPa
視程: 16.1km
高度12000ftの曇り

METAR: PAJN 221553Z 00000KT 10SM OVC120 M07/M08 A2951 RMK AO2 SLP994 I1000 T10721078 $

時間: 07:34 (16:34 UTC)

予報

当レポートは4時間56分前の11:38(UTC)に作成
予報は22日の 12時(UTC)から 23日の 12時(UTC)まで有効
の風 kt
視程: 10km
高度300ftの雲はほとんどない
散在霧
22日の 2100時(UTC)から
の風 4kt
視程: 4.8km
高度2500ftの曇り
小雪
23日の 0900時(UTC)から
の風 kt
視程: 9.7km
高度2500ftの雲は散在している
高度5000ftの千切れ雲あり
高度7000ftの曇り

TAF: PAJN 221138Z 2212/2312 00000KT P6SM BCFG FEW003 FM222100 10004KT 3SM -SN OVC025 FM230900 00000KT 6SM BR SCT025 BKN050 OVC070

4,000以上の空港の気象観測と天気予報(METAR報とTAF報)

利用可能な観測所は地図上に黄色い丸と赤い丸で示す。

丸の上にカーソルを重ねると観測所名を参照できる。

次にクリックすると気象観測と天気予報を参照できる。

マップの切り替え:黒色「×」印の緑ボタンをクリックして拡大、「-」印の緑ボタンをクリックして縮小、緑色の三角印をクリックして隣りの地図に切り替え


METAR-TAF: